Have a Safe July 4th! 

Flight Track Log - Related Links

Times and Time Zones

All times are in EDT time to prevent confusion due to time zone crossing. See the AAL1653 flight status page for this flight to view local times or setup timezone preferences in your user account.

Time Position Orientation Groundspeed Altitude Reporting Facility
EDT Latitude Longitude Course Direction KTS MPH feet Rate Location/Type
Wed 03:10:00 PM 10.9017 -61.5293 328° Northwest  Level FlightAware Approximate
Wed 03:11:00 PM 11.0038 -61.5934 328° Northwest  Level FlightAware Approximate
Wed 03:12:00 PM 11.1058 -61.6575 328° Northwest  Level FlightAware Approximate
Wed 03:13:00 PM 11.2079 -61.7217 328° Northwest  Level FlightAware Approximate
Wed 03:14:00 PM 11.3099 -61.7859 328° Northwest  Level FlightAware Approximate
Wed 03:15:00 PM 11.4120 -61.8502 328° Northwest  Level FlightAware Approximate
Wed 03:16:00 PM 11.5140 -61.9146 328° Northwest  Level FlightAware Approximate
Wed 03:17:00 PM 11.6160 -61.9789 328° Northwest  Level FlightAware Approximate
Wed 03:18:00 PM 11.7179 -62.0434 328° Northwest  Level FlightAware Approximate
Wed 03:19:00 PM 11.8199 -62.1078 328° Northwest  Level FlightAware Approximate
Wed 03:20:00 PM 11.9219 -62.1723 328° Northwest  Level FlightAware Approximate
Wed 03:21:00 PM 12.0238 -62.2369 328° Northwest  Level FlightAware Approximate
Wed 03:22:00 PM 12.1257 -62.3015 328° Northwest  Level FlightAware Approximate
Wed 03:23:00 PM 12.2277 -62.3662 328° Northwest  Level FlightAware Approximate
Wed 03:24:00 PM 12.3296 -62.4309 328° Northwest  Level FlightAware Approximate
Wed 03:25:00 PM 12.4314 -62.4957 328° Northwest  Level FlightAware Approximate
Wed 03:26:00 PM 12.5103 -62.5882 328° Northwest  Level Estimated
Wed 03:27:00 PM 12.6132 -62.6513 329° Northwest  Level FlightAware Approximate
Wed 03:28:00 PM 12.7161 -62.7144 329° Northwest  Level FlightAware Approximate
Wed 03:29:00 PM 12.8190 -62.7776 329° Northwest  Level FlightAware Approximate
Wed 03:30:00 PM 12.9218 -62.8409 329° Northwest  Level FlightAware Approximate
Wed 03:31:00 PM 13.0246 -62.9042 329° Northwest  Level FlightAware Approximate
Wed 03:32:00 PM 13.1274 -62.9676 329° Northwest  Level FlightAware Approximate
Wed 03:33:00 PM 13.2303 -63.0310 329° Northwest  Level FlightAware Approximate
Wed 03:34:00 PM 13.3330 -63.0945 329° Northwest  Level FlightAware Approximate
Wed 03:35:00 PM 13.4358 -63.1580 329° Northwest  Level FlightAware Approximate
Wed 03:36:00 PM 13.5386 -63.2216 329° Northwest  Level FlightAware Approximate
Wed 03:37:00 PM 13.6413 -63.2853 329° Northwest  Level FlightAware Approximate
Wed 03:38:00 PM 13.7440 -63.3490 329° Northwest  Level FlightAware Approximate
Wed 03:39:00 PM 13.8449 -63.4116 329° Northwest  Level FlightAware Approximate
Wed 03:40:00 PM 13.9458 -63.4743 329° Northwest  Level FlightAware Approximate
Wed 03:41:00 PM 14.0466 -63.5370 329° Northwest  Level FlightAware Approximate
Wed 03:42:00 PM 14.1474 -63.5998 329° Northwest  Level FlightAware Approximate
Wed 03:43:00 PM 14.2482 -63.6626 329° Northwest  Level FlightAware Approximate
Wed 03:44:00 PM 14.3490 -63.7255 329° Northwest  Level FlightAware Approximate
Wed 03:45:00 PM 14.4498 -63.7884 329° Northwest  Level FlightAware Approximate
Wed 03:46:00 PM 14.5506 -63.8515 329° Northwest  Level FlightAware Approximate
Wed 03:47:00 PM 14.6513 -63.9145 329° Northwest  Level FlightAware Approximate
Wed 03:48:00 PM 14.7520 -63.9776 329° Northwest  Level FlightAware Approximate
Wed 03:49:00 PM 14.8527 -64.0408 329° Northwest  Level FlightAware Approximate
Wed 03:50:00 PM 14.9534 -64.1041 329° Northwest  Level FlightAware Approximate
Wed 03:51:00 PM 15.0546 -64.1697 327° Northwest  Level FlightAware Approximate
Wed 03:51:50 PM 14.9167 -64.0833 328° Northwest 470 541 38,000  Level San Juan Center
Wed 03:52:00 PM 15.1555 -64.2369 327° Northwest  Level FlightAware Approximate
Wed 03:52:50 PM 15.0333 -64.1500 331° Northwest 470 541 38,000  Level San Juan Center
Wed 03:53:00 PM 15.2564 -64.3041 327° Northwest  Level FlightAware Approximate
Wed 03:53:50 PM 15.1500 -64.2333 325° Northwest 470 541 38,000  Level San Juan Center
Wed 03:54:00 PM 15.3572 -64.3714 327° Northwest  Level FlightAware Approximate
Wed 03:54:50 PM 15.2500 -64.3167 321° Northwest 470 541 38,000  Level San Juan Center
Wed 03:55:00 PM 15.4582 -64.4385 329° Northwest  Level FlightAware Approximate
Wed 03:55:50 PM 15.3500 -64.4000 321° Northwest 480 552 38,000  Level San Juan Center
Wed 03:56:00 PM 15.5604 -64.5035 329° Northwest  Level FlightAware Approximate
Wed 03:56:51 PM 15.4500 -64.5000 316° Northwest 490 564 38,000  Level San Juan Center
Wed 03:57:00 PM 15.6627 -64.5686 328° Northwest  Level FlightAware Approximate
Wed 03:57:51 PM 15.5500 -64.6000 316° Northwest 490 564 38,000  Level San Juan Center
Wed 03:58:51 PM 15.6500 -64.6833 321° Northwest 490 564 38,000  Level San Juan Center
Wed 03:59:51 PM 15.7500 -64.7667 321° Northwest 480 552 38,000  Level San Juan Center
Wed 04:00:51 PM 15.8500 -64.8833 312° West 490 564 38,000  Level San Juan Center
Wed 04:01:51 PM 15.9667 -64.9833 321° Northwest 490 564 38,000  Level San Juan Center
Wed 04:02:52 PM 16.0667 -65.0667 321° Northwest 480 552 38,000  Level San Juan Center
Wed 04:03:51 PM 16.1667 -65.1667 316° Northwest 480 552 38,000  Level San Juan Center
Wed 04:04:52 PM 16.2500 -65.2500 316° Northwest 470 541 38,000  Level San Juan Center
Wed 04:05:52 PM 16.3500 -65.3333 321° Northwest 480 552 38,000  Level San Juan Center
Wed 04:06:52 PM 16.4500 -65.4167 321° Northwest 470 541 38,000  Level San Juan Center
Wed 04:07:52 PM 16.5500 -65.5167 316° Northwest 480 552 38,000  Level San Juan Center
Wed 04:08:52 PM 16.6500 -65.6167 316° Northwest 480 552 38,000  Level San Juan Center
Wed 04:09:52 PM 16.7500 -65.7000 321° Northwest 480 552 38,000  Level San Juan Center
Wed 04:10:52 PM 16.8500 -65.8000 316° Northwest 470 541 38,000  Level San Juan Center
Wed 04:11:52 PM 16.9500 -65.8833 321° Northwest 480 552 38,000  Level San Juan Center
Wed 04:12:52 PM 17.0500 -65.9833 316° Northwest 480 552 38,000  Level San Juan Center
Wed 04:13:53 PM 17.1500 -66.0667 321° Northwest 480 552 38,000 50 Level San Juan Center
Wed 04:14:53 PM 17.2500 -66.1667 316° Northwest 480 552 38,100 600 Climbing San Juan Center
Wed 04:15:53 PM 17.3500 -66.2667 316° Northwest 480 552 39,200 950 Climbing San Juan Center
Wed 04:16:53 PM 17.4500 -66.3500 322° Northwest 480 552 40,000 400 Climbing San Juan Center
Wed 04:17:53 PM 17.5500 -66.4500 316° Northwest 480 552 40,000  Level San Juan Center
Wed 04:18:53 PM 17.6500 -66.5500 316° Northwest 490 564 40,000  Level San Juan Center
Wed 04:19:53 PM 17.7500 -66.6333 322° Northwest 480 552 40,000  Level San Juan Center
Wed 04:20:54 PM 17.8500 -66.7333 316° Northwest 480 552 40,000  Level San Juan Center
Wed 04:21:54 PM 17.9500 -66.8333 316° Northwest 490 564 40,000  Level San Juan Center
Wed 04:22:54 PM 18.0500 -66.9333 316° Northwest 490 564 40,000  Level San Juan Center
Wed 04:23:54 PM 18.1500 -67.0333 316° Northwest 490 564 40,000  Level San Juan Center
Wed 04:24:54 PM 18.2500 -67.1167 322° Northwest 490 564 40,000  Level San Juan Center
Wed 04:25:54 PM 18.3667 -67.2167 321° Northwest 490 564 40,000  Level San Juan Center
Wed 04:26:54 PM 18.4667 -67.3167 317° Northwest 490 564 40,000  Level San Juan Center
Wed 04:27:54 PM 18.5667 -67.4167 317° Northwest 500 575 40,000  Level San Juan Center
Wed 04:28:55 PM 18.6667 -67.5167 317° Northwest 500 575 40,000  Level San Juan Center
Wed 04:29:55 PM 18.7667 -67.6167 317° Northwest 490 564 40,000  Level San Juan Center
Wed 04:30:55 PM 18.8667 -67.7000 322° Northwest 490 564 40,000  Level San Juan Center
Wed 04:31:55 PM 18.9667 -67.8000 317° Northwest 490 564 40,000  Level San Juan Center
Wed 04:32:55 PM 19.0667 -67.9000 317° Northwest 490 564 40,000  Level San Juan Center
Wed 04:33:55 PM 19.1667 -68.0000 317° Northwest 490 564 40,000  Level San Juan Center
Wed 04:34:55 PM 19.2667 -68.1000 317° Northwest 490 564 40,000  Level San Juan Center
Wed 04:35:56 PM 19.3667 -68.2000 317° Northwest 490 564 40,000  Level San Juan Center
Wed 04:36:56 PM 19.4667 -68.3000 317° Northwest 490 564 40,000  Level San Juan Center
Wed 04:37:56 PM 19.5667 -68.4000 317° Northwest 490 564 40,000  Level San Juan Center
Wed 04:39:16 PM 19.7169 -68.5300 321° Northwest 581 669 40,000  Level Miami Center
Wed 04:40:16 PM 19.7981 -68.6064 318° Northwest 543 625 40,000  Level Miami Center
Wed 04:41:16 PM 19.9167 -68.7269 316° Northwest 501 577 40,000  Level Miami Center
Wed 04:42:16 PM 20.0114 -68.8294 315° West 490 564 40,000  Level Miami Center
Wed 04:43:16 PM 20.0903 -68.9503 305° West 490 564 40,000  Level Miami Center
Wed 04:44:16 PM 20.1653 -69.0717 303° West 490 564 40,000  Level Miami Center
Wed 04:45:16 PM 20.2400 -69.1933 303° West 495 570 40,000  Level Miami Center
Wed 04:46:16 PM 20.3086 -69.3197 300° West 495 570 40,000  Level Miami Center
Wed 04:47:16 PM 20.3769 -69.4461 300° West 495 570 40,000  Level Miami Center
Wed 04:48:16 PM 20.4433 -69.5731 299° West 495 570 40,000  Level Miami Center
Wed 04:49:16 PM 20.5119 -69.6997 300° West 490 564 40,000  Level Miami Center
Wed 04:50:16 PM 20.5781 -69.8247 299° West 485 558 40,000  Level Miami Center
Wed 04:51:16 PM 20.6461 -69.9494 300° West 485 558 40,000  Level Miami Center
Wed 04:52:16 PM 20.7119 -70.0725 300° West 485 558 40,000  Level Miami Center
Wed 04:53:16 PM 20.7778 -70.1956 300° West 485 558 40,000  Level Miami Center
Wed 04:54:16 PM 20.8456 -70.3186 301° West 480 552 40,000  Level Miami Center
Wed 04:55:16 PM 20.9089 -70.4397 299° West 480 552 40,000  Level Miami Center
Wed 04:56:16 PM 20.9744 -70.5631 300° West 475 547 40,000  Level Miami Center
Wed 04:57:16 PM 21.0400 -70.6867 300° West 475 547 40,000  Level Miami Center
Wed 04:58:16 PM 21.1031 -70.8081 299° West 470 541 40,000  Level Miami Center
Wed 04:59:16 PM 21.1706 -70.9383 299° West 470 541 40,000  Level Miami Center
Wed 05:00:16 PM 21.2294 -71.0581 298° West 465 535 40,000  Level Miami Center
Wed 05:01:16 PM 21.2922 -71.1778 299° West 465 535 40,000  Level Miami Center
Wed 05:02:16 PM 21.3556 -71.3067 298° West 470 541 40,000  Level Miami Center
Wed 05:03:16 PM 21.4200 -71.4219 301° West 465 535 40,000  Level Miami Center
Wed 05:04:16 PM 21.4825 -71.5375 300° West 460 529 40,000  Level Miami Center
Wed 05:05:16 PM 21.5450 -71.6578 299° West 460 529 40,000  Level Miami Center
Wed 05:06:16 PM 21.6072 -71.7736 300° West 455 524 40,000  Level Miami Center
Wed 05:07:16 PM 21.6697 -71.8939 299° West 455 524 40,000  Level Miami Center
Wed 05:08:16 PM 21.7319 -72.0122 300° West 455 524 40,000  Level Miami Center
Wed 05:09:16 PM 21.7853 -72.1175 299° West 455 524 40,000  Level Miami Center
Wed 05:10:16 PM 21.8475 -72.2361 299° West 455 524 40,000  Level Miami Center
Wed 05:11:16 PM 21.9072 -72.3547 299° West 455 524 40,000  Level Miami Center
Wed 05:12:16 PM 21.9650 -72.4714 298° West 449 517 40,000  Level Miami Center
Wed 05:13:16 PM 22.0267 -72.5900 299° West 449 517 40,000  Level Miami Center
Wed 05:14:16 PM 22.0886 -72.7069 300° West 449 517 40,000  Level Miami Center
Wed 05:15:16 PM 22.1503 -72.8258 299° West 449 517 40,000  Level Miami Center
Wed 05:16:16 PM 22.2097 -72.9450 298° West 449 517 40,000  Level Miami Center
Wed 05:17:16 PM 22.2669 -73.0600 298° West 444 511 40,000  Level Miami Center
Wed 05:18:16 PM 22.3261 -73.1728 300° West 439 505 40,000  Level Miami Center
Wed 05:19:16 PM 22.3831 -73.2903 298° West 439 505 40,000  Level Miami Center
Wed 05:20:16 PM 22.4400 -73.4031 299° West 439 505 40,000  Level Miami Center
Wed 05:21:16 PM 22.4969 -73.5275 296° West 434 499 40,000  Level Miami Center
Wed 05:22:16 PM 22.5558 -73.6431 299° West 434 499 40,000  Level Miami Center
Wed 05:23:16 PM 22.6064 -73.7586 295° West 429 494 40,000  Level Miami Center
Wed 05:24:16 PM 22.6650 -73.8697 300° West 424 488 40,000  Level Miami Center
Wed 05:25:16 PM 22.7194 -73.9833 297° West 424 488 40,000  Level Miami Center
Wed 05:26:16 PM 22.7781 -74.1014 298° West 424 488 40,000  Level Miami Center
Wed 05:27:16 PM 22.8364 -74.2128 300° West 429 494 40,000  Level Miami Center
Wed 05:28:16 PM 22.8908 -74.3289 297° West 429 494 40,000  Level Miami Center
Wed 05:29:16 PM 22.9489 -74.4406 299° West 429 494 40,000  Level Miami Center
Wed 05:30:16 PM 23.0050 -74.5547 298° West 429 494 40,000  Level Miami Center
Wed 05:31:16 PM 23.0589 -74.6667 298° West 429 494 40,000  Level Miami Center
Wed 05:32:16 PM 23.1150 -74.7786 299° West 429 494 40,000  Level Miami Center
Wed 05:33:16 PM 23.1686 -74.8931 297° West 429 494 40,000  Level Miami Center
Wed 05:34:16 PM 23.2244 -75.0072 298° West 429 494 40,000  Level Miami Center
Wed 05:35:16 PM 23.2800 -75.1197 298° West 429 494 40,000  Level Miami Center
Wed 05:36:16 PM 23.3336 -75.2319 298° West 429 494 40,000  Level Miami Center
Wed 05:37:16 PM 23.3892 -75.3444 298° West 429 494 40,000  Level Miami Center
Wed 05:38:16 PM 23.4425 -75.4572 297° West 429 494 40,000  Level Miami Center
Wed 05:39:16 PM 23.4978 -75.5675 299° West 429 494 40,000  Level Miami Center
Wed 05:40:16 PM 23.5550 -75.6803 299° West 429 494 40,000  Level Miami Center
Wed 05:41:16 PM 23.6039 -75.7886 296° West 429 494 40,000  Level Miami Center
Wed 05:42:16 PM 23.6550 -75.9039 296° West 427 491 40,000  Level Miami Center
Wed 05:43:16 PM 23.7036 -76.0125 296° West 413 475 40,000  Level Miami Center
Wed 05:44:16 PM 23.7564 -76.1233 298° West 408 470 40,000  Level Miami Center
Wed 05:45:16 PM 23.8072 -76.2319 297° West 403 464 40,000  Level Miami Center
Wed 05:46:16 PM 23.8578 -76.3431 296° West 403 464 40,000  Level Miami Center
Wed 05:47:16 PM 23.9083 -76.4497 297° West 403 464 40,000  Level Miami Center
Wed 05:48:16 PM 23.9567 -76.5564 296° West 403 464 40,000  Level Miami Center
Wed 05:49:16 PM 24.0069 -76.6656 297° West 403 464 40,000  Level Miami Center
Wed 05:50:16 PM 24.0572 -76.7769 296° West 403 464 40,000  Level Miami Center
Wed 05:51:16 PM 24.1117 -76.8886 298° West 393 452 40,000  Level Miami Center
Wed 05:52:16 PM 24.1636 -77.0000 297° West 393 452 40,000  Level Miami Center
Wed 05:53:16 PM 24.2139 -77.1094 297° West 393 452 40,000  Level Miami Center
Wed 05:54:16 PM 24.2617 -77.2167 296° West 398 458 40,000  Level Miami Center
Wed 05:55:16 PM 24.3136 -77.3286 297° West 405 466 40,000  Level Miami Center
Wed 05:56:16 PM 24.3633 -77.4383 296° West 405 466 40,000  Level Miami Center
Wed 05:57:16 PM 24.4150 -77.5481 297° West 405 466 40,000  Level Miami Center
Wed 05:58:16 PM 24.4647 -77.6556 297° West 400 460 40,000  Level Miami Center
Wed 05:59:16 PM 24.5122 -77.7678 295° West 400 460 40,000  Level Miami Center
Wed 06:00:16 PM 24.5636 -77.8781 297° West 400 460 40,000  Level Miami Center
Wed 06:01:16 PM 24.6069 -77.9742 296° West 400 460 40,000  Level Miami Center
Wed 06:02:16 PM 24.6583 -78.0844 297° West 400 460 40,000 -600 Level Miami Center
Wed 06:03:16 PM 24.7433 -78.1700 318° Northwest 400 460 38,800 -1,250 Descending Miami Center
Wed 06:04:16 PM 24.8494 -78.2192 337° Northwest 403 464 37,500 -1,350 Descending Miami Center
Wed 06:05:16 PM 24.9428 -78.2844 328° Northwest 403 464 36,100 -750 Descending Miami Center
Wed 06:06:16 PM 25.0067 -78.3861 305° West 392 451 36,000 -150 Descending Miami Center
Wed 06:07:16 PM 25.0450 -78.5103 289° West 397 457 35,800 -750 Descending Miami Center
Wed 06:08:16 PM 25.0792 -78.6347 287° West 413 475 34,500 -1,500 Descending Miami Center
Wed 06:09:16 PM 25.1172 -78.7614 288° West 428 493 32,800 -1,750 Descending Miami Center
Wed 06:10:16 PM 25.1511 -78.8861 287° West 433 498 31,000 -1,850 Descending Miami Center
Wed 06:11:16 PM 25.1931 -79.0222 289° West 433 498 29,100 -2,000 Descending Miami Center
Wed 06:12:16 PM 25.2289 -79.1444 288° West 423 487 27,000 -2,450 Descending Miami Center
Wed 06:13:16 PM 25.2625 -79.2647 287° West 423 487 24,200 -2,650 Descending Miami Center
Wed 06:14:16 PM 25.2958 -79.3847 287° West 423 487 21,700 -2,700 Descending Miami Center
Wed 06:15:16 PM 25.3272 -79.4981 287° West 409 471 18,800 -2,872 Descending Miami Center
Wed 06:15:50 PM 25.3428 -79.5650 284° West 374 430 17,200 -3,100 Descending Miami Center
Wed 06:16:16 PM 25.3589 -79.6044 294° West 385 443 15,700 -3,279 Descending Miami Center
Wed 06:17:16 PM 25.3883 -79.7086 287° West 366 421 12,500 -1,895 Descending Miami Center
Wed 06:18:10 PM 25.4306 -79.7925 299° West 341 392 12,100 -500 Descending Miami Center
Wed 06:18:16 PM 25.4408 -79.7975 336° Northwest 352 405 12,000 -182 Descending Miami Center
Wed 06:19:16 PM 25.4933 -79.8814 305° West 341 392 11,900 -600 Descending Miami Center
Wed 06:20:16 PM 25.5419 -79.9564 306° West 323 372 10,800 -1,350 Descending Miami Center
Wed 06:21:16 PM 25.5947 -80.0314 308° West 314 361 9,200 -1,424 Descending Miami Center
Wed 06:22:14 PM 25.6369 -80.1064 302° West 300 345 8,000 -1,200 Descending Miami Center
Wed 06:22:16 PM 25.6433 -80.1064 360° North 308 354 8,000 -179 Level Miami Center
Wed 06:23:21 PM 25.6744 -80.1994 290° West 301 346 7,800 -1,190 Descending Miami Center
Wed 06:24:22 PM 25.6975 -80.2878 286° West 285 328 5,500 -1,983 Descending Miami Center
Wed 06:25:16 PM 25.7083 -80.3594 280° West 293 337 4,000 -1,254 Descending Miami Center
Wed 06:25:29 PM 25.7036 -80.3825 257° West 260 299 4,100 -696 Climbing Miami Center
Wed 06:26:25 PM 25.7042 -80.4494 271° West 229 264 3,200 -488 Descending Miami Center
Wed 06:27:32 PM 25.6981 -80.5253 265° West 222 255 3,100 -52 Descending Miami Center
Wed 06:28:21 PM 25.6989 -80.5758 271° West 215 247 3,100  Level Miami Center
Wed 06:29:22 PM 25.7333 -80.6161 314° West 205 236 3,100 -49 Level Miami Center
Wed 06:30:23 PM 25.7719 -80.5828 38° Northeast 189 217 3,000 -49 Descending Miami Center
Wed 06:31:24 PM 25.7756 -80.5231 86° East 191 220 3,000 -98 Level Miami Center
Wed 06:32:25 PM 25.7747 -80.4675 91° East 183 211 2,800 -639 Descending Miami Center
Wed 06:33:26 PM 25.7803 -80.4147 83° East 171 197 1,700 -885 Descending Miami Center
Wed 06:34:27 PM 25.7792 -80.3661 91° East 137 158 1,000 -724 Descending Miami Center
Wed 06:35:22 PM 25.7822 -80.3294 85° East 136 157 300 -764 Descending Miami Center

Login

Don't have an account? Register now (free) for customized features, flight alerts, and more!